createdAt,value
2018-01-16T00:00:04.711Z,8.86
2018-01-16T00:00:18.442Z,8.87
2018-01-16T00:00:32.282Z,8.86
2018-01-16T00:00:46.062Z,8.85
2018-01-16T00:00:59.947Z,8.86
2018-01-16T00:01:13.587Z,8.86
2018-01-16T00:01:27.249Z,8.86
2018-01-16T00:01:41.151Z,8.86
2018-01-16T00:01:54.991Z,8.86
2018-01-16T00:02:08.641Z,8.86
2018-01-16T00:02:22.340Z,8.86
2018-01-16T00:02:36.060Z,8.86
2018-01-16T00:02:49.848Z,8.86
2018-01-16T00:03:03.453Z,8.85
2018-01-16T00:03:17.147Z,8.86
2018-01-16T00:03:31.017Z,8.86
2018-01-16T00:03:44.668Z,8.85
2018-01-16T00:03:58.064Z,8.85
2018-01-16T00:04:11.718Z,8.85
2018-01-16T00:04:25.455Z,8.85
2018-01-16T00:04:39.109Z,8.85
2018-01-16T00:04:52.683Z,8.85
2018-01-16T00:05:06.483Z,8.85
2018-01-16T00:05:20.284Z,8.85
2018-01-16T00:05:33.958Z,8.85
2018-01-16T00:05:47.708Z,8.84
2018-01-16T00:06:01.523Z,8.85
2018-01-16T00:06:15.337Z,8.84
2018-01-16T00:06:29.231Z,8.84
2018-01-16T00:06:43.004Z,8.84
2018-01-16T00:06:56.828Z,8.84
2018-01-16T00:07:10.479Z,8.84
2018-01-16T00:07:24.335Z,8.84
2018-01-16T00:07:38.175Z,8.84
2018-01-16T00:07:51.973Z,8.84
2018-01-16T00:08:05.667Z,8.85
2018-01-16T00:08:19.410Z,8.84
2018-01-16T00:08:33.228Z,8.84
2018-01-16T00:08:47.170Z,8.83
2018-01-16T00:09:00.823Z,8.83
2018-01-16T00:09:14.631Z,8.83
2018-01-16T00:09:28.526Z,8.83
2018-01-16T00:09:42.470Z,8.83
2018-01-16T00:09:56.365Z,8.84
2018-01-16T00:10:10.007Z,8.84
2018-01-16T00:10:23.873Z,8.83
2018-01-16T00:10:37.691Z,8.83
2018-01-16T00:10:51.453Z,8.83
2018-01-16T00:11:05.128Z,8.83
2018-01-16T00:11:18.887Z,8.83
2018-01-16T00:11:32.620Z,8.82
2018-01-16T00:11:46.475Z,8.82
2018-01-16T00:12:00.339Z,8.82
2018-01-16T00:12:14.098Z,8.82
2018-01-16T00:12:27.717Z,8.83
2018-01-16T00:12:41.539Z,8.82
2018-01-16T00:12:55.279Z,8.81
2018-01-16T00:13:09.069Z,8.82
2018-01-16T00:13:22.716Z,8.82
2018-01-16T00:13:36.387Z,8.82
2018-01-16T00:13:50.103Z,8.82
2018-01-16T00:14:03.983Z,8.82
2018-01-16T00:14:17.872Z,8.82
2018-01-16T00:14:31.514Z,8.82
2018-01-16T00:14:45.396Z,8.82
2018-01-16T00:14:59.015Z,8.81
2018-01-16T00:15:12.654Z,8.82
2018-01-16T00:15:26.303Z,8.81
2018-01-16T00:15:40.130Z,8.82
2018-01-16T00:15:53.907Z,8.82
2018-01-16T00:16:07.670Z,8.82
2018-01-16T00:16:21.459Z,8.81
2018-01-16T00:16:35.124Z,8.81
2018-01-16T00:16:48.861Z,8.81
2018-01-16T00:17:02.702Z,8.81
2018-01-16T00:17:16.643Z,8.81
2018-01-16T00:17:30.323Z,8.81
2018-01-16T00:17:44.130Z,8.81
2018-01-16T00:17:57.783Z,8.81
2018-01-16T00:18:11.404Z,8.81
2018-01-16T00:18:25.210Z,8.80
2018-01-16T00:18:38.998Z,8.81
2018-01-16T00:18:52.657Z,8.80
2018-01-16T00:19:06.366Z,8.81
2018-01-16T00:19:20.192Z,8.81
2018-01-16T00:19:33.831Z,8.80
2018-01-16T00:19:47.568Z,8.81
2018-01-16T00:20:01.259Z,8.80
2018-01-16T00:20:15.227Z,8.80
2018-01-16T00:20:29.233Z,8.80
2018-01-16T00:20:42.990Z,8.80
2018-01-16T00:20:57.836Z,8.80
2018-01-16T00:21:11.587Z,8.80
2018-01-16T00:21:25.346Z,8.81
2018-01-16T00:21:39.215Z,8.80
2018-01-16T00:21:52.936Z,8.81
2018-01-16T00:22:06.703Z,8.80
2018-01-16T00:22:26.065Z,8.80
2018-01-16T00:22:41.532Z,8.80
2018-01-16T00:22:55.480Z,8.80
2018-01-16T00:23:09.236Z,8.80
2018-01-16T00:23:23.162Z,8.80
2018-01-16T00:23:37.158Z,8.80
2018-01-16T00:23:51.041Z,8.80
2018-01-16T00:24:05.130Z,8.80
2018-01-16T00:24:19.015Z,8.80
2018-01-16T00:24:32.729Z,8.81
2018-01-16T00:24:46.503Z,8.80
2018-01-16T00:25:00.303Z,8.81
2018-01-16T00:25:14.097Z,8.80
2018-01-16T00:25:27.850Z,8.80
2018-01-16T00:25:41.507Z,8.81
2018-01-16T00:25:55.331Z,8.80
2018-01-16T00:26:09.625Z,8.80
2018-01-16T00:26:24.051Z,8.81
2018-01-16T00:26:38.352Z,8.81
2018-01-16T00:26:51.997Z,8.80
2018-01-16T00:27:05.693Z,8.81
2018-01-16T00:27:19.420Z,8.80
2018-01-16T00:27:33.202Z,8.81
2018-01-16T00:27:47.073Z,8.81
2018-01-16T00:28:00.969Z,8.81
2018-01-16T00:28:14.839Z,8.81
2018-01-16T00:28:28.675Z,8.81
2018-01-16T00:28:42.615Z,8.81
2018-01-16T00:28:56.420Z,8.81
2018-01-16T00:29:10.068Z,8.81
2018-01-16T00:29:23.778Z,8.81
2018-01-16T00:29:37.508Z,8.81
2018-01-16T00:29:51.487Z,8.81
2018-01-16T00:30:05.231Z,8.81
2018-01-16T00:30:18.910Z,8.81
2018-01-16T00:30:32.705Z,8.81
2018-01-16T00:30:46.448Z,8.82
2018-01-16T00:31:00.203Z,8.81
2018-01-16T00:31:13.989Z,8.81
2018-01-16T00:31:27.861Z,8.80
2018-01-16T00:31:41.780Z,8.81
2018-01-16T00:31:55.599Z,8.81
2018-01-16T00:32:09.367Z,8.81
2018-01-16T00:32:22.984Z,8.80
2018-01-16T00:32:36.883Z,8.80
2018-01-16T00:32:50.608Z,8.80
2018-01-16T00:33:04.588Z,8.80
2018-01-16T00:33:18.357Z,8.80
2018-01-16T00:33:32.201Z,8.80
2018-01-16T00:33:45.838Z,8.80
2018-01-16T00:33:59.451Z,8.80
2018-01-16T00:34:13.193Z,8.80
2018-01-16T00:34:26.986Z,8.80
2018-01-16T00:34:40.723Z,8.80
2018-01-16T00:34:54.404Z,8.80
2018-01-16T00:35:08.344Z,8.80
2018-01-16T00:35:22.224Z,8.80
2018-01-16T00:35:35.971Z,8.80
2018-01-16T00:35:49.746Z,8.80
2018-01-16T00:36:03.615Z,8.80
2018-01-16T00:36:17.278Z,8.81
2018-01-16T00:36:31.100Z,8.80
2018-01-16T00:36:44.949Z,8.80
2018-01-16T00:36:58.687Z,8.80
2018-01-16T00:37:12.578Z,8.81
2018-01-16T00:37:26.371Z,8.81
2018-01-16T00:37:40.240Z,8.81
2018-01-16T00:37:53.902Z,8.81
2018-01-16T00:38:07.795Z,8.81
2018-01-16T00:38:21.603Z,8.80
2018-01-16T00:38:35.312Z,8.81
2018-01-16T00:38:49.331Z,8.80
2018-01-16T00:39:03.263Z,8.81
2018-01-16T00:39:16.870Z,8.80
2018-01-16T00:39:30.547Z,8.80
2018-01-16T00:39:44.231Z,8.81
2018-01-16T00:39:57.953Z,8.81
2018-01-16T00:40:11.627Z,8.81
2018-01-16T00:40:25.423Z,8.80
2018-01-16T00:40:39.036Z,8.80
2018-01-16T00:40:52.855Z,8.81
2018-01-16T00:41:06.602Z,8.81
2018-01-16T00:41:20.395Z,8.81
2018-01-16T00:41:34.220Z,8.81
2018-01-16T00:41:48.052Z,8.80
2018-01-16T00:42:01.900Z,8.81
2018-01-16T00:42:15.667Z,8.80
2018-01-16T00:42:29.373Z,8.81
2018-01-16T00:42:43.099Z,8.80
2018-01-16T00:42:56.782Z,8.80
2018-01-16T00:43:10.528Z,8.80
2018-01-16T00:43:24.284Z,8.80
2018-01-16T00:43:37.904Z,8.80
2018-01-16T00:43:51.651Z,8.79
2018-01-16T00:44:05.410Z,8.80
2018-01-16T00:44:19.286Z,8.79
2018-01-16T00:44:33.013Z,8.79
2018-01-16T00:44:47.001Z,8.79
2018-01-16T00:45:00.871Z,8.79
2018-01-16T00:45:14.537Z,8.79
2018-01-16T00:45:28.243Z,8.79
2018-01-16T00:45:42.027Z,8.78
2018-01-16T00:45:55.743Z,8.78
2018-01-16T00:46:09.487Z,8.78
2018-01-16T00:46:23.231Z,8.78
2018-01-16T00:46:36.923Z,8.78
2018-01-16T00:46:50.883Z,8.77
2018-01-16T00:47:04.559Z,8.77
2018-01-16T00:47:18.426Z,8.77
2018-01-16T00:47:32.316Z,8.77
2018-01-16T00:47:45.981Z,8.77
2018-01-16T00:47:59.757Z,8.76
2018-01-16T00:48:13.559Z,8.77
2018-01-16T00:48:27.199Z,8.77
2018-01-16T00:48:41.033Z,8.76
2018-01-16T00:48:54.752Z,8.76
2018-01-16T00:49:08.587Z,8.76
2018-01-16T00:49:22.227Z,8.76
2018-01-16T00:49:35.973Z,8.76
2018-01-16T00:49:49.752Z,8.75
2018-01-16T00:50:03.467Z,8.75
2018-01-16T00:50:17.161Z,8.75
2018-01-16T00:50:30.936Z,8.75
2018-01-16T00:50:44.699Z,8.75
2018-01-16T00:50:58.495Z,8.75
2018-01-16T00:51:12.331Z,8.75
2018-01-16T00:51:26.143Z,8.75
2018-01-16T00:51:39.771Z,8.75
2018-01-16T00:51:53.544Z,8.75
2018-01-16T00:52:07.275Z,8.75
2018-01-16T00:52:20.958Z,8.74
2018-01-16T00:52:34.672Z,8.75
2018-01-16T00:52:48.419Z,8.74
2018-01-16T00:53:02.132Z,8.74
2018-01-16T00:53:16.022Z,8.74
2018-01-16T00:53:29.849Z,8.74
2018-01-16T00:53:43.522Z,8.74
2018-01-16T00:53:57.199Z,8.74
2018-01-16T00:54:10.980Z,8.74
2018-01-16T00:54:24.763Z,8.74
2018-01-16T00:54:38.617Z,8.73
2018-01-16T00:54:52.367Z,8.74
2018-01-16T00:55:06.035Z,8.73
2018-01-16T00:55:19.782Z,8.73
2018-01-16T00:55:33.463Z,8.74
2018-01-16T00:55:47.238Z,8.73
2018-01-16T00:56:00.898Z,8.73
2018-01-16T00:56:14.731Z,8.73
2018-01-16T00:56:28.525Z,8.73
2018-01-16T00:56:42.309Z,8.73
2018-01-16T00:56:55.907Z,8.73
2018-01-16T00:57:09.720Z,8.73
2018-01-16T00:57:23.466Z,8.73
2018-01-16T00:57:37.095Z,8.73
2018-01-16T00:57:50.806Z,8.73
2018-01-16T00:58:04.729Z,8.73
2018-01-16T00:58:18.661Z,8.72
2018-01-16T00:58:32.476Z,8.73
2018-01-16T00:58:46.148Z,8.72
2018-01-16T00:58:59.813Z,8.72
2018-01-16T00:59:13.502Z,8.72
2018-01-16T00:59:27.158Z,8.72
2018-01-16T00:59:40.863Z,8.72
2018-01-16T00:59:55.692Z,8.72
2018-01-16T01:00:09.428Z,8.71
2018-01-16T01:00:23.146Z,8.72
2018-01-16T01:00:36.850Z,8.72
2018-01-16T01:00:50.602Z,8.72
2018-01-16T01:01:04.234Z,8.72
2018-01-16T01:01:17.989Z,8.71
2018-01-16T01:01:31.847Z,8.72
2018-01-16T01:01:45.535Z,8.72
2018-01-16T01:01:59.195Z,8.72
2018-01-16T01:02:12.794Z,8.71
2018-01-16T01:02:26.440Z,8.72
2018-01-16T01:02:40.148Z,8.71
2018-01-16T01:02:53.879Z,8.72
2018-01-16T01:03:08.511Z,8.71
2018-01-16T01:03:22.286Z,8.71
2018-01-16T01:03:36.396Z,8.72
2018-01-16T01:03:50.328Z,8.71
2018-01-16T01:04:04.068Z,8.71
2018-01-16T01:04:17.743Z,8.71
2018-01-16T01:04:31.367Z,8.71
2018-01-16T01:04:44.990Z,8.71
2018-01-16T01:04:58.647Z,8.71
2018-01-16T01:05:12.342Z,8.71
2018-01-16T01:05:26.221Z,8.72
2018-01-16T01:05:40.259Z,8.71
2018-01-16T01:05:53.919Z,8.71
2018-01-16T01:06:07.798Z,8.71
2018-01-16T01:06:21.595Z,8.72
2018-01-16T01:06:35.458Z,8.71
2018-01-16T01:06:49.286Z,8.70
2018-01-16T01:07:03.300Z,8.71
2018-01-16T01:07:17.074Z,8.71
2018-01-16T01:07:30.872Z,8.71
2018-01-16T01:07:44.543Z,8.71
2018-01-16T01:07:58.259Z,8.71
2018-01-16T01:08:11.972Z,8.70
2018-01-16T01:08:25.932Z,8.70
2018-01-16T01:08:39.664Z,8.70
2018-01-16T01:08:53.463Z,8.70
2018-01-16T01:09:07.375Z,8.69
2018-01-16T01:09:21.055Z,8.69
2018-01-16T01:09:34.755Z,8.69
2018-01-16T01:09:48.571Z,8.69
2018-01-16T01:10:02.330Z,8.69
2018-01-16T01:10:15.942Z,8.69
2018-01-16T01:10:29.606Z,8.69
2018-01-16T01:10:43.263Z,8.68
2018-01-16T01:10:56.962Z,8.68
2018-01-16T01:11:10.726Z,8.68
2018-01-16T01:11:24.390Z,8.68
2018-01-16T01:11:38.007Z,8.68
2018-01-16T01:11:51.848Z,8.68
2018-01-16T01:12:05.857Z,8.68
2018-01-16T01:12:19.496Z,8.67
2018-01-16T01:12:33.311Z,8.67
2018-01-16T01:12:47.130Z,8.67
2018-01-16T01:13:01.040Z,8.67
2018-01-16T01:13:14.784Z,8.67
2018-01-16T01:13:28.443Z,8.67
2018-01-16T01:13:42.335Z,8.66
2018-01-16T01:13:56.102Z,8.66
2018-01-16T01:14:09.838Z,8.66
2018-01-16T01:14:23.523Z,8.66
2018-01-16T01:14:37.326Z,8.66
2018-01-16T01:14:51.257Z,8.66
2018-01-16T01:15:05.067Z,8.65
2018-01-16T01:15:18.891Z,8.65
2018-01-16T01:15:32.663Z,8.64
2018-01-16T01:15:46.401Z,8.65
2018-01-16T01:16:00.322Z,8.65
2018-01-16T01:16:14.083Z,8.64
2018-01-16T01:16:27.895Z,8.64
2018-01-16T01:16:41.616Z,8.64
2018-01-16T01:16:55.306Z,8.64
2018-01-16T01:17:08.971Z,8.64
2018-01-16T01:17:22.659Z,8.63
2018-01-16T01:17:37.428Z,8.64
2018-01-16T01:17:51.127Z,8.64
2018-01-16T01:18:04.946Z,8.64
2018-01-16T01:18:18.703Z,8.64
2018-01-16T01:18:32.479Z,8.64
2018-01-16T01:18:46.285Z,8.63
2018-01-16T01:19:00.029Z,8.63
2018-01-16T01:19:13.868Z,8.63
2018-01-16T01:19:27.602Z,8.63
2018-01-16T01:19:41.479Z,8.62
2018-01-16T01:19:55.255Z,8.62
2018-01-16T01:20:08.937Z,8.62
2018-01-16T01:20:22.712Z,8.63
2018-01-16T01:20:36.361Z,8.62
2018-01-16T01:20:50.051Z,8.61
2018-01-16T01:21:03.914Z,8.62
2018-01-16T01:21:17.558Z,8.62
2018-01-16T01:21:31.204Z,8.62
2018-01-16T01:21:45.051Z,8.61
2018-01-16T01:21:58.856Z,8.61
2018-01-16T01:22:12.487Z,8.61
2018-01-16T01:22:26.138Z,8.60
2018-01-16T01:22:39.886Z,8.60
2018-01-16T01:22:53.538Z,8.59
2018-01-16T01:23:07.283Z,8.60
2018-01-16T01:23:20.951Z,8.59
2018-01-16T01:23:34.703Z,8.59
2018-01-16T01:23:48.513Z,8.59
2018-01-16T01:24:02.243Z,8.59
2018-01-16T01:24:15.864Z,8.58
2018-01-16T01:24:29.567Z,8.58
2018-01-16T01:24:43.370Z,8.58
2018-01-16T01:24:57.102Z,8.57
2018-01-16T01:25:10.903Z,8.57
2018-01-16T01:25:24.587Z,8.57
2018-01-16T01:25:38.376Z,8.57
2018-01-16T01:25:52.139Z,8.56
2018-01-16T01:26:05.890Z,8.56
2018-01-16T01:26:19.650Z,8.56
2018-01-16T01:26:33.523Z,8.55
2018-01-16T01:26:47.342Z,8.54
2018-01-16T01:27:00.996Z,8.54
2018-01-16T01:27:14.672Z,8.54
2018-01-16T01:27:28.481Z,8.53
2018-01-16T01:27:42.291Z,8.53
2018-01-16T01:27:55.995Z,8.52
2018-01-16T01:28:09.921Z,8.52
2018-01-16T01:28:23.778Z,8.52
2018-01-16T01:28:37.519Z,8.52
2018-01-16T01:28:51.295Z,8.51
2018-01-16T01:29:05.145Z,8.51
2018-01-16T01:29:18.938Z,8.50
2018-01-16T01:29:32.798Z,8.50
2018-01-16T01:29:46.473Z,8.49
2018-01-16T01:30:00.303Z,8.49
2018-01-16T01:30:13.879Z,8.48
2018-01-16T01:30:27.642Z,8.48
2018-01-16T01:30:41.549Z,8.48
2018-01-16T01:30:55.173Z,8.47
2018-01-16T01:31:08.929Z,8.46
2018-01-16T01:31:22.628Z,8.46
2018-01-16T01:31:36.389Z,8.45
2018-01-16T01:31:50.307Z,8.45
2018-01-16T01:32:04.128Z,8.45
2018-01-16T01:32:17.832Z,8.45
2018-01-16T01:32:31.495Z,8.44
2018-01-16T01:32:45.101Z,8.43
2018-01-16T01:32:58.844Z,8.43
2018-01-16T01:33:12.688Z,8.43
2018-01-16T01:33:26.380Z,8.42
2018-01-16T01:33:40.315Z,8.42
2018-01-16T01:33:54.011Z,8.41
2018-01-16T01:34:07.864Z,8.41
2018-01-16T01:34:21.626Z,8.40
2018-01-16T01:34:35.379Z,8.40
2018-01-16T01:34:49.211Z,8.40
2018-01-16T01:35:03.129Z,8.39
2018-01-16T01:35:16.932Z,8.39
2018-01-16T01:35:30.708Z,8.38
2018-01-16T01:35:44.478Z,8.38
2018-01-16T01:35:58.162Z,8.38
2018-01-16T01:36:11.851Z,8.38
2018-01-16T01:36:25.517Z,8.37
2018-01-16T01:36:39.208Z,8.36
2018-01-16T01:36:53.132Z,8.37
2018-01-16T01:37:07.832Z,8.36
2018-01-16T01:37:21.451Z,8.36
2018-01-16T01:37:35.151Z,8.35
2018-01-16T01:37:48.783Z,8.35
2018-01-16T01:38:03.694Z,8.34
2018-01-16T01:38:17.424Z,8.35
2018-01-16T01:38:31.166Z,8.34
2018-01-16T01:38:44.821Z,8.34
2018-01-16T01:38:58.830Z,8.33
2018-01-16T01:39:12.537Z,8.33
2018-01-16T01:39:26.220Z,8.32
2018-01-16T01:39:39.870Z,8.32
2018-01-16T01:39:54.256Z,8.32
2018-01-16T01:40:07.896Z,8.31
2018-01-16T01:40:21.669Z,8.31
2018-01-16T01:40:35.319Z,8.31
2018-01-16T01:40:49.002Z,8.31
2018-01-16T01:41:02.793Z,8.31
2018-01-16T01:41:16.552Z,8.30
2018-01-16T01:41:30.291Z,8.31
2018-01-16T01:41:44.087Z,8.30
2018-01-16T01:41:57.887Z,8.30
2018-01-16T01:42:11.513Z,8.29
2018-01-16T01:42:25.117Z,8.29
2018-01-16T01:42:38.708Z,8.29
2018-01-16T01:42:52.383Z,8.29
2018-01-16T01:43:06.042Z,8.28
2018-01-16T01:43:19.843Z,8.28
2018-01-16T01:43:33.636Z,8.28
2018-01-16T01:43:47.473Z,8.27
2018-01-16T01:44:01.153Z,8.28
2018-01-16T01:44:14.974Z,8.27
2018-01-16T01:44:28.780Z,8.27
2018-01-16T01:44:42.403Z,8.26
2018-01-16T01:44:56.087Z,8.27
2018-01-16T01:45:09.942Z,8.27
2018-01-16T01:45:23.785Z,8.26
2018-01-16T01:45:37.695Z,8.26
2018-01-16T01:45:51.563Z,8.25
2018-01-16T01:46:05.372Z,8.26
2018-01-16T01:46:19.050Z,8.26
2018-01-16T01:46:32.725Z,8.26
2018-01-16T01:46:46.391Z,8.25
2018-01-16T01:47:00.050Z,8.25
2018-01-16T01:47:13.919Z,8.25
2018-01-16T01:47:27.620Z,8.26
2018-01-16T01:47:41.405Z,8.25
2018-01-16T01:47:55.319Z,8.25
2018-01-16T01:48:09.083Z,8.26
2018-01-16T01:48:22.886Z,8.25
2018-01-16T01:48:36.808Z,8.25
2018-01-16T01:48:50.279Z,8.25
2018-01-16T01:49:10.471Z,8.25
2018-01-16T01:49:24.881Z,8.25
2018-01-16T01:49:38.676Z,8.25
2018-01-16T01:49:52.582Z,8.26
2018-01-16T01:50:06.430Z,8.25
2018-01-16T01:50:20.198Z,8.25
2018-01-16T01:50:33.962Z,8.25
2018-01-16T01:50:47.698Z,8.26
2018-01-16T01:51:01.583Z,8.26
2018-01-16T01:51:15.343Z,8.26
2018-01-16T01:51:29.015Z,8.27
2018-01-16T01:51:42.749Z,8.26
2018-01-16T01:51:56.653Z,8.27
2018-01-16T01:52:10.428Z,8.27
2018-01-16T01:52:24.291Z,8.27
2018-01-16T01:52:37.971Z,8.27
2018-01-16T01:52:51.849Z,8.28
2018-01-16T01:53:05.688Z,8.27
2018-01-16T01:53:19.609Z,8.28
2018-01-16T01:53:33.335Z,8.28
2018-01-16T01:53:47.097Z,8.29
2018-01-16T01:54:00.818Z,8.29
2018-01-16T01:54:14.569Z,8.29
2018-01-16T01:54:28.182Z,8.29
2018-01-16T01:54:41.807Z,8.29
2018-01-16T01:54:55.507Z,8.28
2018-01-16T01:55:09.228Z,8.29
2018-01-16T01:55:24.099Z,8.29
2018-01-16T01:55:38.104Z,8.28
2018-01-16T01:55:51.917Z,8.29
2018-01-16T01:56:05.583Z,8.28
2018-01-16T01:56:19.264Z,8.28
2018-01-16T01:56:33.003Z,8.28
2018-01-16T01:56:46.820Z,8.28
2018-01-16T01:57:00.547Z,8.28
2018-01-16T01:57:14.233Z,8.27
2018-01-16T01:57:27.959Z,8.28
2018-01-16T01:57:41.785Z,8.27
2018-01-16T01:57:55.455Z,8.27
2018-01-16T01:58:09.244Z,8.26
2018-01-16T01:58:23.024Z,8.26
2018-01-16T01:58:36.907Z,8.26
2018-01-16T01:58:50.798Z,8.27
2018-01-16T01:59:04.651Z,8.25
2018-01-16T01:59:18.465Z,8.26
2018-01-16T01:59:32.207Z,8.25
2018-01-16T01:59:46.099Z,8.25
2018-01-16T01:59:59.912Z,8.24
2018-01-16T02:00:13.743Z,8.24
2018-01-16T02:00:27.545Z,8.24
2018-01-16T02:00:41.266Z,8.23
2018-01-16T02:00:55.037Z,8.23
2018-01-16T02:01:08.907Z,8.22
2018-01-16T02:01:22.638Z,8.23
2018-01-16T02:01:36.471Z,8.22
2018-01-16T02:01:50.111Z,8.22
2018-01-16T02:02:03.859Z,8.21
2018-01-16T02:02:17.648Z,8.21
2018-01-16T02:02:31.882Z,8.20
2018-01-16T02:02:45.455Z,8.19
2018-01-16T02:02:59.179Z,8.19
2018-01-16T02:03:12.815Z,8.19
2018-01-16T02:03:26.654Z,8.19
2018-01-16T02:03:40.336Z,8.19
2018-01-16T02:03:54.169Z,8.18
2018-01-16T02:04:07.868Z,8.18
2018-01-16T02:04:21.668Z,8.18
2018-01-16T02:04:35.327Z,8.18
2018-01-16T02:04:48.973Z,8.18
2018-01-16T02:05:02.691Z,8.18
2018-01-16T02:05:16.427Z,8.18
2018-01-16T02:05:30.044Z,8.18
2018-01-16T02:05:43.703Z,8.18
2018-01-16T02:05:57.344Z,8.18
2018-01-16T02:06:11.030Z,8.18
2018-01-16T02:06:24.951Z,8.18
2018-01-16T02:06:38.683Z,8.18
2018-01-16T02:06:52.339Z,8.18
2018-01-16T02:07:06.091Z,8.18
2018-01-16T02:07:19.776Z,8.18
2018-01-16T02:07:33.388Z,8.19
2018-01-16T02:07:47.035Z,8.18
2018-01-16T02:08:00.706Z,8.18
2018-01-16T02:08:14.455Z,8.19
2018-01-16T02:08:48.364Z,8.19
2018-01-16T02:09:02.136Z,8.19
2018-01-16T02:09:15.815Z,8.20
2018-01-16T02:09:30.628Z,8.19
2018-01-16T02:09:44.343Z,8.21
2018-01-16T02:09:58.178Z,8.20
2018-01-16T02:10:11.807Z,8.21
2018-01-16T02:10:25.540Z,8.21
2018-01-16T02:10:39.412Z,8.21
2018-01-16T02:10:53.127Z,8.21
2018-01-16T02:11:07.077Z,8.21
2018-01-16T02:11:20.764Z,8.21
2018-01-16T02:11:34.667Z,8.22
2018-01-16T02:11:48.411Z,8.22
2018-01-16T02:12:02.075Z,8.22
2018-01-16T02:12:15.747Z,8.22
2018-01-16T02:12:29.419Z,8.23
2018-01-16T02:12:43.098Z,8.23
2018-01-16T02:12:56.698Z,8.23
2018-01-16T02:13:10.379Z,8.23
2018-01-16T02:13:24.242Z,8.24
2018-01-16T02:13:37.862Z,8.25
2018-01-16T02:13:51.584Z,8.25
2018-01-16T02:14:05.405Z,8.25
2018-01-16T02:14:19.301Z,8.26
2018-01-16T02:14:32.959Z,8.26
2018-01-16T02:14:46.735Z,8.26
2018-01-16T02:15:00.499Z,8.26
2018-01-16T02:15:14.147Z,8.28
2018-01-16T02:15:28.037Z,8.27
2018-01-16T02:15:41.799Z,8.28
2018-01-16T02:15:55.643Z,8.29
2018-01-16T02:16:09.475Z,8.28
2018-01-16T02:16:23.360Z,8.29
2018-01-16T02:16:37.216Z,8.29
2018-01-16T02:16:51.061Z,8.30
2018-01-16T02:17:04.833Z,8.30
2018-01-16T02:17:18.598Z,8.30
2018-01-16T02:17:32.370Z,8.30
2018-01-16T02:17:46.075Z,8.31
2018-01-16T02:17:59.908Z,8.31
2018-01-16T02:18:13.597Z,8.31
2018-01-16T02:18:27.286Z,8.32
2018-01-16T02:18:41.856Z,8.32
2018-01-16T02:18:56.328Z,8.33
2018-01-16T02:19:10.096Z,8.32
2018-01-16T02:19:23.985Z,8.33
2018-01-16T02:19:37.647Z,8.33
2018-01-16T02:19:51.520Z,8.34
2018-01-16T02:20:05.367Z,8.33
2018-01-16T02:20:19.217Z,8.34
2018-01-16T02:20:33.117Z,8.34
2018-01-16T02:20:46.934Z,8.35
2018-01-16T02:21:00.839Z,8.35
2018-01-16T02:21:14.464Z,8.34
2018-01-16T02:21:28.133Z,8.35
2018-01-16T02:21:42.042Z,8.35
2018-01-16T02:21:55.951Z,8.35
2018-01-16T02:22:09.652Z,8.36
2018-01-16T02:22:23.329Z,8.36
2018-01-16T02:22:37.080Z,8.36
2018-01-16T02:22:50.683Z,8.36
2018-01-16T02:23:04.398Z,8.36
2018-01-16T02:23:18.127Z,8.36
2018-01-16T02:23:32.029Z,8.36
2018-01-16T02:23:45.849Z,8.36
2018-01-16T02:23:59.603Z,8.37
2018-01-16T02:24:13.399Z,8.36
2018-01-16T02:24:27.200Z,8.36
2018-01-16T02:24:40.865Z,8.36
2018-01-16T02:24:54.599Z,8.36
2018-01-16T02:25:08.356Z,8.35
2018-01-16T02:25:22.028Z,8.36
2018-01-16T02:25:35.943Z,8.35
2018-01-16T02:25:49.794Z,8.36
2018-01-16T02:26:03.680Z,8.36
2018-01-16T02:26:17.499Z,8.36
2018-01-16T02:26:31.325Z,8.35
2018-01-16T02:26:45.077Z,8.35
2018-01-16T02:26:58.844Z,8.35
2018-01-16T02:27:12.435Z,8.35
2018-01-16T02:27:26.089Z,8.35
2018-01-16T02:27:39.744Z,8.35
2018-01-16T02:27:53.553Z,8.36
2018-01-16T02:28:07.202Z,8.36
2018-01-16T02:28:20.995Z,8.36
2018-01-16T02:28:34.922Z,8.36
2018-01-16T02:28:48.731Z,8.35
2018-01-16T02:29:02.574Z,8.36
2018-01-16T02:29:16.210Z,8.35
2018-01-16T02:29:30.099Z,8.35
2018-01-16T02:29:43.879Z,8.35
2018-01-16T02:29:57.755Z,8.35
2018-01-16T02:30:11.555Z,8.35
2018-01-16T02:30:25.375Z,8.35
2018-01-16T02:30:39.238Z,8.35
2018-01-16T02:30:53.081Z,8.35
2018-01-16T02:31:06.972Z,8.35
2018-01-16T02:31:20.798Z,8.36
2018-01-16T02:31:34.476Z,8.36
2018-01-16T02:31:48.340Z,8.35
2018-01-16T02:32:02.076Z,8.35
2018-01-16T02:32:16.029Z,8.35
2018-01-16T02:32:29.715Z,8.35
2018-01-16T02:32:43.499Z,8.35
2018-01-16T02:32:57.223Z,8.35
2018-01-16T02:33:10.998Z,8.36
2018-01-16T02:33:24.886Z,8.36
2018-01-16T02:33:38.606Z,8.36
2018-01-16T02:33:53.243Z,8.36
2018-01-16T02:34:06.941Z,8.37
2018-01-16T02:34:20.719Z,8.36
2018-01-16T02:34:34.662Z,8.36
2018-01-16T02:34:48.591Z,8.36
2018-01-16T02:35:02.429Z,8.37
2018-01-16T02:35:16.066Z,8.36
2018-01-16T02:35:29.886Z,8.36
2018-01-16T02:35:44.673Z,8.36
2018-01-16T02:35:59.431Z,8.36
2018-01-16T02:36:13.087Z,8.36
2018-01-16T02:36:26.944Z,8.36
2018-01-16T02:36:40.693Z,8.36
2018-01-16T02:36:54.524Z,8.36
2018-01-16T02:37:08.444Z,8.36
2018-01-16T02:37:22.137Z,8.37
2018-01-16T02:37:35.835Z,8.36
2018-01-16T02:37:49.547Z,8.37
2018-01-16T02:38:03.387Z,8.37
2018-01-16T02:38:17.153Z,8.37
2018-01-16T02:38:30.975Z,8.37
2018-01-16T02:38:44.839Z,8.38
2018-01-16T02:38:58.721Z,8.38
2018-01-16T02:39:12.341Z,8.38
2018-01-16T02:39:25.999Z,8.38
2018-01-16T02:39:39.688Z,8.38
2018-01-16T02:39:53.349Z,8.38
2018-01-16T02:40:07.213Z,8.38
2018-01-16T02:40:21.808Z,8.39
2018-01-16T02:40:35.706Z,8.38
2018-01-16T02:40:49.375Z,8.39
2018-01-16T02:41:03.047Z,8.39
2018-01-16T02:41:16.896Z,8.39
2018-01-16T02:41:30.743Z,8.39
2018-01-16T02:41:44.598Z,8.40
2018-01-16T02:41:58.351Z,8.39
2018-01-16T02:42:11.981Z,8.40
2018-01-16T02:42:25.755Z,8.40
2018-01-16T02:42:39.430Z,8.39
2018-01-16T02:42:53.166Z,8.39
2018-01-16T02:43:06.617Z,8.40
2018-01-16T02:43:21.027Z,8.40
2018-01-16T02:43:34.891Z,8.40
2018-01-16T02:43:48.700Z,8.40
2018-01-16T02:44:02.389Z,8.40
2018-01-16T02:44:16.014Z,8.40
2018-01-16T02:44:29.488Z,8.40
2018-01-16T02:44:43.072Z,8.40
2018-01-16T02:44:56.670Z,8.40
2018-01-16T02:45:10.177Z,8.40
2018-01-16T02:45:23.729Z,8.40
2018-01-16T02:45:37.270Z,8.41
2018-01-16T02:45:51.288Z,8.41
2018-01-16T02:46:05.134Z,8.41
2018-01-16T02:46:18.835Z,8.42
2018-01-16T02:46:32.623Z,8.41
2018-01-16T02:46:46.196Z,8.41
2018-01-16T02:46:59.656Z,8.42
2018-01-16T02:47:13.156Z,8.42
2018-01-16T02:47:26.801Z,8.41
2018-01-16T02:47:40.419Z,8.42
2018-01-16T02:47:54.034Z,8.42
2018-01-16T02:48:07.725Z,8.42
2018-01-16T02:48:21.496Z,8.43
2018-01-16T02:48:35.290Z,8.43
2018-01-16T02:48:49.083Z,8.43
2018-01-16T02:49:02.941Z,8.43
2018-01-16T02:49:16.923Z,8.43
2018-01-16T02:49:30.504Z,8.43
2018-01-16T02:49:44.207Z,8.43
2018-01-16T02:49:57.701Z,8.43
2018-01-16T02:50:11.336Z,8.43
2018-01-16T02:50:24.782Z,8.43
2018-01-16T02:50:38.439Z,8.43
2018-01-16T02:50:51.889Z,8.43
2018-01-16T02:51:05.402Z,8.43
2018-01-16T02:51:19.038Z,8.43
2018-01-16T02:51:32.576Z,8.43
2018-01-16T02:51:46.164Z,8.43
2018-01-16T02:51:59.826Z,8.43
2018-01-16T02:52:13.471Z,8.43
2018-01-16T02:52:27.251Z,8.43
2018-01-16T02:52:41.051Z,8.43
2018-01-16T02:52:54.700Z,8.43
2018-01-16T02:53:08.375Z,8.44
2018-01-16T02:53:22.124Z,8.43
2018-01-16T02:53:36.052Z,8.43
2018-01-16T02:53:49.675Z,8.44
2018-01-16T02:54:03.447Z,8.43
2018-01-16T02:54:17.205Z,8.44
2018-01-16T02:54:31.087Z,8.44
2018-01-16T02:54:44.798Z,8.45
2018-01-16T02:54:58.543Z,8.44
2018-01-16T02:55:11.998Z,8.45
2018-01-16T02:55:25.469Z,8.45
2018-01-16T02:55:39.298Z,8.45
2018-01-16T02:55:53.140Z,8.46
2018-01-16T02:56:06.827Z,8.45
2018-01-16T02:56:20.611Z,8.46
2018-01-16T02:56:34.358Z,8.46
2018-01-16T02:56:48.004Z,8.46
2018-01-16T02:57:01.819Z,8.46
2018-01-16T02:57:15.479Z,8.46
2018-01-16T02:57:29.305Z,8.47
2018-01-16T02:57:42.941Z,8.46
2018-01-16T02:57:56.911Z,8.47
2018-01-16T02:58:10.618Z,8.47
2018-01-16T02:58:24.298Z,8.47
2018-01-16T02:58:37.959Z,8.47
2018-01-16T02:58:51.651Z,8.47
2018-01-16T02:59:05.591Z,8.48
2018-01-16T02:59:19.387Z,8.48
2018-01-16T02:59:33.217Z,8.48
2018-01-16T02:59:47.189Z,8.49
2018-01-16T03:00:00.934Z,8.50
2018-01-16T03:00:14.660Z,8.50
2018-01-16T03:00:28.327Z,8.50
2018-01-16T03:00:42.180Z,8.50
2018-01-16T03:00:55.967Z,8.50
2018-01-16T03:01:09.735Z,8.50
2018-01-16T03:01:23.519Z,8.50
2018-01-16T03:01:37.205Z,8.51
2018-01-16T03:01:50.851Z,8.52
2018-01-16T03:02:04.623Z,8.52
2018-01-16T03:02:18.406Z,8.52
2018-01-16T03:02:31.770Z,8.53
2018-01-16T03:02:45.378Z,8.52
2018-01-16T03:02:59.076Z,8.53
2018-01-16T03:03:12.875Z,8.53
2018-01-16T03:03:27.184Z,8.54
2018-01-16T03:03:40.959Z,8.53
2018-01-16T03:03:55.605Z,8.54